CheckWX is a tool to help pilots better visualize weather data.  It is not intended as a substitute for an official pre-flight weather briefing.

20:25:48 UTC

49A METAR
Gilmer County Airport
Ellijay, Georgia, USA
Current

31 mins ago

K49A 201955Z AUTO 27005KT 7SM RA SCT010 BKN015 OVC028 08/06 A2982 RMK AO2 T00770057
Observed
Apr-20 @ 19:55 UTC
Wind
  • 270° at 5 KTS
Visibility
7 SM
Flight Rules
MVFR
Conditions
Rain
Cloud Levels
  • Scattered at 1,000' AGL
  • Broken at 1,500' AGL
  • Overcast at 2,800' AGL
Temperature
C / 46°F
Dewpoint
C / 43°F
Humidity
87%
Altimeter
29.82" Hg
Pressure
1009.82 hPa
Previous

51 mins ago

K49A 201935Z AUTO 26004KT 10SM -RA SCT012 BKN020 OVC026 08/06 A2981 RMK AO2 T00760055
Observed
Apr-20 @ 19:35 UTC
Wind
  • 260° at 4 KTS
Visibility
10 SM
Flight Rules
MVFR
Conditions
Light Rain
Cloud Levels
  • Scattered at 1,200' AGL
  • Broken at 2,000' AGL
  • Overcast at 2,600' AGL
Temperature
C / 46°F
Dewpoint
C / 43°F
Humidity
87%
Altimeter
29.81" Hg
Pressure
1009.52 hPa
Previous

1 hour ago

K49A 201915Z AUTO 25003KT 7SM DZ SCT015 OVC023 08/05 A2981 RMK AO2 T00780051
Observed
Apr-20 @ 19:15 UTC
Wind
  • 250° at 3 KTS
Visibility
7 SM
Flight Rules
MVFR
Conditions
Drizzle
Cloud Levels
  • Scattered at 1,500' AGL
  • Overcast at 2,300' AGL
Temperature
C / 46°F
Dewpoint
C / 41°F
Humidity
82%
Altimeter
29.81" Hg
Pressure
1009.52 hPa